Time;durP1;ratioP1;P1;durP2;ratioP2;P2;SDS_P1;SDS_P2;PMS_P1;PMS_P2;Temp;Humidity;BMP_temperature;BMP_pressure;BME280_temperature;BME280_humidity;BME280_pressure;Samples;Min_cycle;Max_cycle;Signal;HPM_P1;HPM_P2
2021/06/26 00:01:47;;;;;;;541.92;327.08;;;13.40;99.90;;;;;;8361940;28;20481;-66
2021/06/26 00:05:48;;;;;;;533.70;330.92;;;13.40;99.90;;;;;;8361697;28;20488;-66
2021/06/26 00:09:48;;;;;;;531.78;328.95;;;13.10;99.90;;;;;;8361654;28;20029;-66
2021/06/26 00:13:49;;;;;;;536.15;331.77;;;12.90;99.90;;;;;;8361261;28;20523;-66
2021/06/26 00:17:49;;;;;;;536.00;333.58;;;12.90;99.90;;;;;;8361123;28;20040;-66
2021/06/26 00:21:50;;;;;;;535.22;331.25;;;13.20;99.90;;;;;;8361196;28;20025;-66
2021/06/26 00:25:50;;;;;;;529.20;325.15;;;13.50;99.90;;;;;;8361127;28;20475;-65
2021/06/26 00:29:51;;;;;;;532.90;328.00;;;13.40;99.90;;;;;;8360444;28;20033;-65
2021/06/26 00:33:51;;;;;;;529.60;327.50;;;13.20;99.90;;;;;;8360551;28;20029;-66
2021/06/26 00:37:52;;;;;;;527.40;328.30;;;12.90;99.90;;;;;;8360405;28;20037;-66
2021/06/26 00:41:53;;;;;;;526.97;327.98;;;12.80;99.90;;;;;;8360432;28;20025;-66
2021/06/26 00:46:00;;;;;;;528.22;328.38;;;12.70;99.90;;;;;;8360226;28;20485;-66
2021/06/26 00:50:00;;;;;;;528.10;326.02;;;12.70;99.90;;;;;;8359151;28;20039;-66
2021/06/26 00:54:01;;;;;;;529.70;330.38;;;12.70;99.90;;;;;;8359470;28;20020;-66
2021/06/26 00:58:02;;;;;;;530.80;325.02;;;12.80;99.90;;;;;;8359937;28;20036;-65
2021/06/26 01:02:04;;;;;;;526.13;326.40;;;13.00;99.90;;;;;;8359351;28;20032;-66
2021/06/26 01:06:05;;;;;;;529.88;327.83;;;13.20;99.90;;;;;;8359709;28;20460;-65
2021/06/26 01:10:06;;;;;;;534.65;340.13;;;12.90;99.90;;;;;;8360227;28;20032;-66
2021/06/26 01:14:07;;;;;;;533.42;340.15;;;12.60;99.90;;;;;;8359465;28;20095;-65
2021/06/26 01:18:08;;;;;;;533.03;340.77;;;12.40;99.90;;;;;;8359507;28;20053;-65
2021/06/26 01:22:09;;;;;;;531.65;340.10;;;12.60;99.90;;;;;;8375058;28;20036;-65
2021/06/26 01:26:09;;;;;;;534.47;338.67;;;12.80;99.90;;;;;;8359557;28;20099;-66
2021/06/26 01:30:12;;;;;;;535.17;341.25;;;12.60;99.90;;;;;;8359293;28;20063;-66
2021/06/26 01:34:12;;;;;;;537.97;343.30;;;12.50;99.90;;;;;;8359054;28;20399;-66
2021/06/26 01:38:13;;;;;;;535.22;338.33;;;12.40;99.90;;;;;;8358693;28;20052;-66
2021/06/26 01:42:13;;;;;;;530.53;339.05;;;12.40;99.90;;;;;;8358763;28;20040;-65
2021/06/26 01:46:14;;;;;;;531.08;340.10;;;12.30;99.90;;;;;;8357527;28;20044;-66
2021/06/26 01:50:16;;;;;;;533.65;342.20;;;12.10;99.90;;;;;;8357959;28;20025;-66
2021/06/26 01:54:17;;;;;;;532.17;342.08;;;12.20;99.90;;;;;;8357555;28;20032;-65
2021/06/26 01:58:20;;;;;;;530.40;338.38;;;12.20;99.90;;;;;;8357240;28;20029;-65
2021/06/26 02:02:20;;;;;;;534.13;344.00;;;12.20;99.90;;;;;;8357533;28;20032;-65
2021/06/26 02:06:21;;;;;;;540.00;342.08;;;12.40;99.90;;;;;;8357995;28;20383;-65
2021/06/26 02:10:22;;;;;;;545.15;338.77;;;12.10;99.90;;;;;;8357774;28;20100;-65
2021/06/26 02:14:22;;;;;;;543.88;338.23;;;11.90;99.90;;;;;;8358064;28;20025;-65
2021/06/26 02:18:23;;;;;;;535.58;342.42;;;11.90;99.90;;;;;;8357707;28;20044;-65
2021/06/26 02:22:23;;;;;;;537.55;342.27;;;12.00;99.90;;;;;;8357937;28;20441;-65
2021/06/26 02:26:24;;;;;;;531.55;338.00;;;12.10;99.90;;;;;;8357785;28;20072;-65
2021/06/26 02:30:24;;;;;;;537.95;340.40;;;11.90;99.90;;;;;;8357362;28;20025;-65
2021/06/26 02:34:25;;;;;;;591.50;332.58;;;11.70;99.90;;;;;;8356478;28;20025;-65
2021/06/26 02:38:26;;;;;;;556.05;338.58;;;11.90;99.90;;;;;;8357378;28;20029;-65
2021/06/26 02:42:26;;;;;;;533.30;337.30;;;12.10;99.90;;;;;;8357469;28;20017;-66
2021/06/26 02:46:27;;;;;;;530.10;344.38;;;11.90;99.90;;;;;;8357464;28;20082;-65
2021/06/26 02:50:27;;;;;;;609.58;345.08;;;11.70;99.90;;;;;;8357186;28;20064;-65
2021/06/26 02:54:28;;;;;;;568.70;360.05;;;11.60;99.90;;;;;;8368165;23;20463;-72
2021/06/26 02:58:28;;;;;;;553.70;355.27;;;11.60;99.90;;;;;;8237881;28;20073;-71
2021/06/26 03:02:29;;;;;;;570.60;352.27;;;11.70;99.90;;;;;;8228683;28;20031;-71
2021/06/26 03:06:30;;;;;;;555.67;355.30;;;11.80;99.90;;;;;;8227288;28;20053;-71
2021/06/26 03:10:30;;;;;;;544.63;358.77;;;11.60;99.90;;;;;;8228034;28;20041;-72
2021/06/26 03:14:31;;;;;;;524.58;353.13;;;11.60;99.90;;;;;;8226554;28;20080;-72
2021/06/26 03:18:33;;;;;;;526.28;352.95;;;11.60;99.90;;;;;;8227230;28;20077;-72
2021/06/26 03:22:33;;;;;;;523.08;350.77;;;11.50;99.90;;;;;;8227027;28;20067;-71
2021/06/26 03:26:34;;;;;;;518.65;348.80;;;11.50;99.90;;;;;;8226622;28;20439;-72
2021/06/26 03:30:35;;;;;;;519.20;348.20;;;11.50;99.90;;;;;;8227412;28;20431;-71
2021/06/26 03:34:36;;;;;;;516.22;346.13;;;11.40;99.90;;;;;;8226505;28;20030;-72
2021/06/26 03:38:36;;;;;;;519.78;346.52;;;11.40;99.90;;;;;;8225505;28;20538;-71
2021/06/26 03:42:38;;;;;;;512.25;337.02;;;11.60;99.90;;;;;;8227130;28;20034;-72
2021/06/26 03:46:38;;;;;;;517.97;345.75;;;11.40;99.90;;;;;;8226231;28;20488;-71
2021/06/26 03:50:40;;;;;;;517.92;345.58;;;11.50;99.90;;;;;;8226566;28;20084;-72
2021/06/26 03:54:41;;;;;;;520.42;339.83;;;11.60;99.90;;;;;;8224920;28;20031;-72
2021/06/26 03:58:41;;;;;;;516.25;340.17;;;11.50;99.90;;;;;;8226113;28;20031;-72
2021/06/26 04:02:42;;;;;;;521.75;345.42;;;11.50;99.90;;;;;;8226387;28;20033;-71
2021/06/26 04:06:42;;;;;;;516.85;338.80;;;11.50;99.90;;;;;;8225950;28;20054;-72
2021/06/26 04:10:43;;;;;;;518.95;344.33;;;11.50;99.90;;;;;;8225621;28;20037;-72
2021/06/26 04:14:44;;;;;;;519.05;340.58;;;11.80;99.90;;;;;;8225945;28;20027;-71
2021/06/26 04:18:44;;;;;;;525.13;340.83;;;12.10;99.90;;;;;;8225755;28;20496;-72
2021/06/26 04:22:45;;;;;;;519.65;341.90;;;12.10;99.90;;;;;;8226317;28;20027;-72
2021/06/26 04:26:46;;;;;;;520.72;342.77;;;12.10;99.90;;;;;;8224319;28;20034;-72
2021/06/26 04:30:46;;;;;;;520.42;338.50;;;12.40;99.90;;;;;;8219745;28;20030;-72
2021/06/26 04:34:47;;;;;;;519.53;339.70;;;12.60;99.90;;;;;;8205443;28;20037;-72
2021/06/26 04:38:48;;;;;;;519.45;339.30;;;12.80;99.90;;;;;;8213137;28;20409;-74
2021/06/26 04:42:49;;;;;;;517.13;336.00;;;12.90;99.90;;;;;;8206697;28;20102;-74
2021/06/26 04:46:49;;;;;;;520.85;340.08;;;13.10;99.90;;;;;;8193239;28;20178;-74
2021/06/26 04:50:50;;;;;;;515.47;338.77;;;13.40;99.90;;;;;;8191812;28;20089;-73
2021/06/26 04:54:51;;;;;;;515.90;333.42;;;13.70;99.90;;;;;;8214658;28;20405;-75
2021/06/26 04:58:51;;;;;;;517.90;335.60;;;14.00;99.90;;;;;;8215480;28;20032;-75
2021/06/26 05:02:52;;;;;;;519.42;338.20;;;14.30;99.90;;;;;;8195480;28;20118;-72
2021/06/26 05:06:52;;;;;;;521.83;335.92;;;14.50;99.90;;;;;;8199730;28;20032;-75
2021/06/26 05:10:53;;;;;;;522.58;339.73;;;14.70;99.90;;;;;;8206743;28;20128;-75
2021/06/26 05:14:54;;;;;;;524.53;342.02;;;15.00;99.90;;;;;;8202878;28;20488;-75
2021/06/26 05:18:54;;;;;;;522.33;342.48;;;15.20;99.90;;;;;;8224703;28;20061;-72
2021/06/26 05:22:55;;;;;;;525.90;346.38;;;15.50;99.90;;;;;;8222274;28;20035;-72
2021/06/26 05:26:55;;;;;;;526.53;349.08;;;15.70;99.90;;;;;;8229203;28;20122;-73
2021/06/26 05:30:56;;;;;;;528.28;349.70;;;15.80;99.90;;;;;;8203880;28;20035;-74
2021/06/26 05:34:57;;;;;;;527.35;334.13;;;16.10;99.90;;;;;;8214984;28;20089;-73
2021/06/26 05:38:57;;;;;;;516.63;332.42;;;16.30;99.90;;;;;;8223797;28;20034;-75
2021/06/26 05:42:58;;;;;;;507.17;323.80;;;16.50;99.90;;;;;;8200725;28;20031;-74
2021/06/26 05:46:58;;;;;;;417.45;349.25;;;16.90;99.90;;;;;;8198651;28;20172;-74
2021/06/26 05:50:59;;;;;;;499.80;330.77;;;17.20;99.90;;;;;;8219461;28;20046;-73
2021/06/26 05:55:00;;;;;;;514.95;360.23;;;17.40;99.90;;;;;;8213411;28;20042;-74
2021/06/26 05:59:00;;;;;;;510.77;346.65;;;17.70;99.90;;;;;;8219315;28;20125;-74
2021/06/26 06:03:02;;;;;;;521.40;348.50;;;17.70;99.90;;;;;;8223747;28;20053;-72
2021/06/26 06:07:03;;;;;;;497.15;342.33;;;17.90;99.90;;;;;;8198470;28;20035;-73
2021/06/26 06:11:04;;;;;;;499.08;335.35;;;18.20;99.90;;;;;;8199710;28;20031;-73
2021/06/26 06:15:09;;;;;;;475.70;323.00;;;18.40;99.90;;;;;;8198002;28;20026;-75
2021/06/26 06:19:10;;;;;;;444.90;312.05;;;18.50;99.90;;;;;;8220198;28;20109;-72
2021/06/26 06:23:11;;;;;;;408.42;317.75;;;18.50;99.90;;;;;;8214914;28;20477;-74
2021/06/26 06:27:11;;;;;;;426.02;299.35;;;19.00;99.90;;;;;;8192527;28;20039;-74
2021/06/26 06:31:13;;;;;;;486.35;345.65;;;19.40;99.90;;;;;;8194103;28;20020;-72
2021/06/26 06:35:14;;;;;;;509.23;361.45;;;19.70;99.90;;;;;;8213923;28;20088;-61
2021/06/26 06:39:14;;;;;;;465.63;335.95;;;20.00;99.90;;;;;;8221609;28;20084;-61
2021/06/26 06:43:15;;;;;;;414.60;341.45;;;20.10;99.90;;;;;;8210126;28;20058;-61
2021/06/26 06:47:16;;;;;;;421.67;337.77;;;20.00;99.90;;;;;;8198923;28;20035;-60
2021/06/26 06:51:16;;;;;;;157.38;144.85;;;19.90;99.90;;;;;;8194269;28;20031;-61
2021/06/26 06:55:17;;;;;;;133.15;126.13;;;19.90;99.90;;;;;;8221350;28;20412;-61
2021/06/26 06:59:17;;;;;;;473.30;334.52;;;20.20;99.90;;;;;;8227260;28;20076;-60
2021/06/26 07:03:18;;;;;;;472.73;339.83;;;20.00;99.90;;;;;;8228643;28;20080;-61
2021/06/26 07:07:18;;;;;;;440.83;363.25;;;20.10;99.90;;;;;;8228105;28;20519;-61
2021/06/26 07:11:19;;;;;;;287.95;272.20;;;20.30;99.90;;;;;;8216708;28;20028;-61
2021/06/26 07:15:19;;;;;;;403.67;379.17;;;20.50;99.90;;;;;;8221322;28;20058;-61
2021/06/26 07:19:20;;;;;;;8.02;5.85;;;20.60;99.90;;;;;;8227577;28;20405;-61
2021/06/26 07:23:21;;;;;;;6.43;5.68;;;20.70;99.90;;;;;;8224871;28;20034;-61
2021/06/26 07:27:21;;;;;;;6.38;5.47;;;20.60;99.90;;;;;;8224231;28;20023;-61
2021/06/26 07:31:23;;;;;;;7.03;5.38;;;20.90;99.90;;;;;;8226599;28;20038;-60
2021/06/26 07:35:23;;;;;;;7.63;5.20;;;21.00;99.90;;;;;;8227134;28;20027;-61
2021/06/26 07:39:24;;;;;;;5.38;4.85;;;21.20;99.90;;;;;;8224538;28;20049;-61
2021/06/26 07:43:25;;;;;;;6.68;4.90;;;21.40;99.90;;;;;;8209576;28;20067;-61
2021/06/26 07:47:26;;;;;;;6.05;4.53;;;21.40;99.90;;;;;;8195016;29;20031;-61
2021/06/26 07:51:26;;;;;;;5.25;4.75;;;21.70;99.90;;;;;;8194573;28;20036;-61
2021/06/26 07:55:29;;;;;;;5.20;4.25;;;21.70;99.90;;;;;;8211951;28;20051;-61
2021/06/26 07:59:30;;;;;;;4.93;4.28;;;21.40;99.90;;;;;;8209440;28;20400;-61
2021/06/26 08:03:30;;;;;;;5.18;4.55;;;21.30;99.90;;;;;;8210377;28;20130;-60
2021/06/26 08:07:31;;;;;;;5.40;4.35;;;21.30;99.90;;;;;;8213567;28;20022;-61
2021/06/26 08:11:32;;;;;;;4.93;4.20;;;21.80;99.90;;;;;;8217056;28;20076;-60
2021/06/26 08:15:36;;;;;;;5.57;4.18;;;21.90;99.90;;;;;;8208937;28;20042;-60
2021/06/26 08:19:37;;;;;;;4.32;3.92;;;22.50;99.90;;;;;;8209368;28;20023;-70
2021/06/26 08:23:37;;;;;;;5.20;3.83;;;22.60;99.90;;;;;;8212740;28;20037;-71
2021/06/26 08:27:38;;;;;;;3.97;3.58;;;22.80;99.90;;;;;;8207932;28;20114;-71
2021/06/26 08:31:38;;;;;;;4.70;3.50;;;23.30;99.90;;;;;;8207622;28;20031;-71
2021/06/26 08:35:39;;;;;;;5.57;3.97;;;23.60;99.90;;;;;;8209887;28;20023;-63
2021/06/26 08:39:39;;;;;;;3.80;3.35;;;24.30;99.90;;;;;;8213595;28;20195;-63
2021/06/26 08:43:42;;;;;;;4.00;3.60;;;24.80;99.90;;;;;;8200436;28;20038;-64
2021/06/26 08:47:47;;;;;;;4.88;3.78;;;25.20;99.90;;;;;;8224424;28;20053;-64
2021/06/26 08:51:48;;;;;;;4.63;3.85;;;25.50;99.90;;;;;;8220811;28;20023;-64
2021/06/26 08:55:52;;;;;;;4.93;3.83;;;25.50;99.90;;;;;;8223351;28;20110;-66
2021/06/26 08:59:53;;;;;;;4.63;4.22;;;24.80;99.90;;;;;;8224599;28;20031;-65
2021/06/26 09:04:08;;;;;;;7.43;4.00;;;24.40;99.90;;;;;;8213146;28;20118;-66
2021/06/26 09:08:21;;;;;;;4.82;4.13;;;24.80;99.90;;;;;;8223745;28;20038;-66
2021/06/26 09:12:23;;;;;;;7.90;4.00;;;24.50;99.90;;;;;;8224392;28;20529;-66
2021/06/26 09:16:24;;;;;;;7.38;4.43;;;24.20;99.90;;;;;;8210012;28;20043;-65
2021/06/26 09:20:35;;;;;;;4.50;4.10;;;24.60;99.90;;;;;;8215167;28;20544;-65
2021/06/26 09:24:39;;;;;;;4.53;4.13;;;24.20;99.90;;;;;;8211379;28;20023;-66
2021/06/26 09:28:40;;;;;;;4.80;4.40;;;24.20;99.90;;;;;;8223701;28;20030;-66
2021/06/26 09:32:44;;;;;;;4.82;4.25;;;24.80;99.90;;;;;;8214218;28;20489;-67
2021/06/26 09:40:55;;;;;;;4.18;3.78;;;26.50;99.90;;;;;;8344172;22;20051;-66
2021/06/26 09:45:02;;;;;;;4.43;3.72;;;26.00;99.90;;;;;;8204396;28;20032;-66
2021/06/26 09:49:03;;;;;;;6.28;4.28;;;26.20;99.90;;;;;;8287659;28;20773;-64
2021/06/26 09:53:06;;;;;;;4.85;4.35;;;26.10;99.90;;;;;;8357015;28;20508;-62
2021/06/26 09:57:06;;;;;;;5.43;4.30;;;25.70;99.90;;;;;;8357624;28;20461;-63
2021/06/26 10:01:07;;;;;;;4.97;4.47;;;25.90;99.90;;;;;;8376740;28;20081;-64
2021/06/26 10:05:08;;;;;;;4.68;4.10;;;26.00;99.90;;;;;;8378976;28;20034;-63
2021/06/26 10:09:09;;;;;;;4.20;3.80;;;26.10;99.90;;;;;;8388829;28;20024;-63
2021/06/26 10:13:13;;;;;;;5.25;3.50;;;25.80;99.90;;;;;;8381022;28;20036;-65
2021/06/26 10:17:15;;;;;;;4.03;3.63;;;26.00;99.90;;;;;;8361898;28;20095;-65
2021/06/26 10:21:15;;;;;;;5.82;3.75;;;25.90;99.90;;;;;;8364549;28;20036;-64
2021/06/26 10:25:16;;;;;;;4.10;3.63;;;26.20;99.90;;;;;;8372651;28;20054;-64
2021/06/26 10:29:33;;;;;;;4.32;3.90;;;26.40;99.90;;;;;;8356537;28;20060;-64
2021/06/26 10:33:34;;;;;;;4.07;3.78;;;26.90;99.90;;;;;;8357106;28;20009;-65
2021/06/26 10:37:34;;;;;;;5.22;4.05;;;27.30;99.90;;;;;;8356439;28;20021;-64
2021/06/26 10:41:35;;;;;;;4.82;4.38;;;27.80;99.90;;;;;;8357388;28;20490;-65
2021/06/26 10:45:36;;;;;;;3.97;3.60;;;28.10;99.90;;;;;;8354985;28;20059;-66
2021/06/26 10:49:37;;;;;;;4.07;3.67;;;28.10;99.90;;;;;;8356712;28;20040;-65
2021/06/26 10:53:41;;;;;;;3.75;3.40;;;27.80;99.90;;;;;;8365068;28;20033;-64
2021/06/26 10:57:47;;;;;;;4.55;3.63;;;27.20;99.90;;;;;;8367129;28;20037;-64
2021/06/26 11:01:55;;;;;;;4.70;3.00;;;26.70;99.90;;;;;;8362394;28;20025;-64
2021/06/26 11:05:57;;;;;;;3.80;3.33;;;26.50;99.90;;;;;;8362204;28;20039;-64
2021/06/26 11:10:13;;;;;;;8.02;3.13;;;26.50;99.90;;;;;;8355884;28;20029;-64
2021/06/26 11:14:24;;;;;;;3.10;2.80;;;26.70;99.90;;;;;;8386731;28;20402;-64
2021/06/26 11:18:25;;;;;;;4.35;3.38;;;27.10;99.90;;;;;;8366157;28;20123;-65
2021/06/26 11:22:25;;;;;;;3.45;3.05;;;27.80;99.90;;;;;;8357898;28;20029;-65
2021/06/26 11:26:26;;;;;;;3.00;2.70;;;28.20;99.90;;;;;;8362732;28;20025;-64
2021/06/26 11:30:26;;;;;;;3.35;3.05;;;27.80;98.50;;;;;;8362613;28;20386;-64
2021/06/26 11:34:27;;;;;;;3.33;3.00;;;27.00;99.90;;;;;;8372573;28;20036;-65
2021/06/26 11:38:28;;;;;;;3.38;2.70;;;27.30;99.90;;;;;;8367647;28;20029;-65
2021/06/26 11:42:28;;;;;;;3.53;2.67;;;28.80;99.90;;;;;;8367015;28;20037;-65
2021/06/26 11:46:29;;;;;;;2.90;2.70;;;29.70;94.60;;;;;;8364687;28;20033;-65
2021/06/26 11:50:30;;;;;;;2.83;2.63;;;31.70;91.50;;;;;;8359383;28;20430;-65
2021/06/26 11:54:30;;;;;;;4.68;2.55;;;32.60;85.70;;;;;;8361926;28;20040;-65
2021/06/26 11:58:45;;;;;;;3.47;2.95;;;30.40;89.20;;;;;;8357855;28;20083;-64
2021/06/26 12:02:46;;;;;;;2.90;2.63;;;30.40;92.60;;;;;;8360281;28;20581;-63
2021/06/26 12:06:48;;;;;;;6.43;2.72;;;30.90;90.60;;;;;;8361714;28;20029;-64
2021/06/26 12:10:50;;;;;;;2.75;2.53;;;31.80;91.00;;;;;;8343767;28;20610;-64
2021/06/26 12:14:50;;;;;;;2.47;2.28;;;32.70;88.80;;;;;;8376147;28;20032;-64
2021/06/26 12:18:57;;;;;;;3.25;2.80;;;33.00;81.10;;;;;;8394349;28;20028;-64
2021/06/26 12:23:12;;;;;;;2.85;2.58;;;32.00;77.50;;;;;;8386888;28;20029;-64
2021/06/26 12:27:16;;;;;;;3.63;2.83;;;30.70;84.20;;;;;;8361311;28;20083;-64
2021/06/26 12:31:17;;;;;;;6.80;2.90;;;29.80;86.10;;;;;;8360794;28;20483;-64
2021/06/26 12:35:27;;;;;;;2.83;2.50;;;29.20;90.30;;;;;;8360790;28;20046;-64
2021/06/26 12:39:32;;;;;;;3.30;3.00;;;29.50;84.50;;;;;;8363645;28;20506;-65
2021/06/26 12:43:34;;;;;;;3.10;2.80;;;31.40;86.40;;;;;;8376122;28;20036;-64
2021/06/26 12:47:34;;;;;;;2.85;2.58;;;31.30;80.60;;;;;;8372146;28;20044;-65
2021/06/26 12:51:46;;;;;;;3.40;3.03;;;30.30;83.10;;;;;;8362746;28;20115;-64
2021/06/26 12:55:59;;;;;;;2.92;2.72;;;29.90;84.70;;;;;;8372499;28;20024;-64
2021/06/26 12:59:59;;;;;;;3.85;2.47;;;33.00;80.40;;;;;;8393294;28;20050;-64
2021/06/26 13:04:00;;;;;;;2.60;2.40;;;37.30;68.10;;;;;;8380631;28;20033;-65
2021/06/26 13:08:03;;;;;;;2.97;2.78;;;38.40;60.10;;;;;;8359691;28;20035;-64
2021/06/26 13:12:08;;;;;;;2.90;2.70;;;37.20;56.60;;;;;;8360237;28;20022;-65
2021/06/26 13:16:08;;;;;;;2.72;2.53;;;36.40;57.40;;;;;;8361901;28;20116;-64
2021/06/26 13:20:10;;;;;;;3.05;2.75;;;34.50;57.70;;;;;;8392587;28;20509;-65
2021/06/26 13:24:11;;;;;;;3.22;2.80;;;33.70;63.70;;;;;;8357098;28;20082;-64
2021/06/26 13:28:11;;;;;;;2.50;2.30;;;35.90;60.00;;;;;;8362001;28;20041;-65
2021/06/26 13:32:14;;;;;;;2.72;2.53;;;38.30;53.80;;;;;;8387222;28;20105;-64
2021/06/26 13:36:14;;;;;;;3.10;2.80;;;34.40;59.10;;;;;;8369978;28;20082;-65
2021/06/26 13:40:15;;;;;;;2.80;2.60;;;33.10;62.00;;;;;;8390952;28;20115;-65
2021/06/26 13:44:16;;;;;;;3.67;2.90;;;31.90;65.10;;;;;;8391644;28;20409;-65
2021/06/26 13:48:17;;;;;;;5.07;2.65;;;31.50;70.50;;;;;;8391508;28;20088;-65
2021/06/26 13:52:17;;;;;;;3.15;2.85;;;32.50;70.00;;;;;;8364551;28;20040;-65
2021/06/26 13:56:18;;;;;;;2.70;2.50;;;36.60;57.70;;;;;;8364942;28;20056;-65
2021/06/26 14:00:20;;;;;;;2.50;2.30;;;38.70;55.00;;;;;;8371737;28;20032;-65
2021/06/26 14:04:20;;;;;;;3.95;2.42;;;39.90;48.80;;;;;;8366425;28;20127;-65
2021/06/26 14:08:21;;;;;;;4.68;2.83;;;41.60;47.10;;;;;;8363182;28;20441;-65
2021/06/26 14:12:21;;;;;;;2.72;2.53;;;42.90;45.00;;;;;;8373100;28;20033;-66
2021/06/26 14:16:22;;;;;;;2.92;1.98;;;42.90;43.30;;;;;;8357503;28;20653;-66
2021/06/26 14:20:22;;;;;;;2.30;2.10;;;42.00;42.40;;;;;;8372723;28;20036;-66
2021/06/26 14:24:23;;;;;;;623.38;575.40;;;40.90;42.30;;;;;;8371053;28;20059;-66
2021/06/26 14:28:24;;;;;;;466.55;416.27;;;40.70;43.10;;;;;;8373808;28;20098;-65
2021/06/26 14:32:24;;;;;;;2.40;2.20;;;39.40;45.90;;;;;;8358213;28;20522;-65
2021/06/26 14:36:25;;;;;;;3.15;2.25;;;36.30;48.20;;;;;;8357428;28;20084;-65
2021/06/26 14:40:25;;;;;;;2.53;2.33;;;34.90;52.00;;;;;;8357185;28;20036;-65
2021/06/26 14:44:27;;;;;;;3.00;2.80;;;33.60;54.00;;;;;;8373511;28;20032;-65
2021/06/26 14:48:27;;;;;;;2.85;2.65;;;32.40;57.90;;;;;;8390751;28;20028;-66
2021/06/26 14:52:28;;;;;;;2.75;2.55;;;31.70;60.00;;;;;;8386910;28;20021;-66
2021/06/26 14:56:29;;;;;;;2.72;2.53;;;31.20;61.00;;;;;;8388899;28;20063;-66
2021/06/26 15:00:29;;;;;;;2.90;2.70;;;31.30;62.00;;;;;;8396855;28;20036;-66
2021/06/26 15:04:30;;;;;;;3.00;2.70;;;31.70;61.00;;;;;;8380059;28;20036;-66
2021/06/26 15:08:30;;;;;;;3.90;2.45;;;33.20;57.80;;;;;;8374527;28;20517;-66
2021/06/26 15:12:31;;;;;;;4.50;2.53;;;34.10;57.00;;;;;;8384074;28;20021;-65
2021/06/26 15:16:32;;;;;;;3.38;2.92;;;35.40;54.10;;;;;;8359924;28;20037;-66
2021/06/26 15:20:33;;;;;;;2.70;2.50;;;37.50;52.40;;;;;;8363873;28;20115;-66
2021/06/26 15:24:34;;;;;;;2.85;2.65;;;39.50;48.30;;;;;;8361365;28;20025;-66
2021/06/26 15:28:34;;;;;;;3.13;2.47;;;39.70;46.30;;;;;;8358925;28;20456;-65
2021/06/26 15:32:35;;;;;;;3.20;2.90;;;38.40;45.90;;;;;;8376587;28;20104;-66
2021/06/26 15:36:39;;;;;;;4.00;2.85;;;36.80;50.10;;;;;;8361207;28;20021;-66
2021/06/26 15:40:40;;;;;;;2.80;2.60;;;35.60;51.00;;;;;;8378694;28;20033;-65
2021/06/26 15:44:41;;;;;;;3.10;2.90;;;34.80;53.40;;;;;;8373214;28;20031;-65
2021/06/26 15:48:42;;;;;;;2.97;2.78;;;34.30;55.10;;;;;;8378302;28;20031;-65
2021/06/26 15:52:43;;;;;;;2.70;2.50;;;33.40;55.60;;;;;;8375474;28;20017;-64
2021/06/26 15:56:44;;;;;;;4.05;3.00;;;32.80;58.00;;;;;;8358095;28;20017;-65
2021/06/26 16:00:44;;;;;;;3.22;2.70;;;33.00;57.90;;;;;;8372191;28;20043;-65
2021/06/26 16:04:45;;;;;;;2.95;2.65;;;33.00;57.60;;;;;;8363673;28;20036;-65
2021/06/26 16:08:46;;;;;;;2.90;2.70;;;32.60;55.60;;;;;;8361244;28;20028;-65
2021/06/26 16:12:47;;;;;;;3.20;2.90;;;32.30;58.60;;;;;;8361960;28;20497;-65
2021/06/26 16:16:47;;;;;;;2.85;2.50;;;32.00;58.90;;;;;;8343289;28;20511;-65
2021/06/26 16:20:48;;;;;;;4.45;3.13;;;32.80;57.30;;;;;;8361294;28;20029;-65
2021/06/26 16:24:50;;;;;;;2.90;2.70;;;36.00;52.90;;;;;;8362781;28;20032;-65
2021/06/26 16:28:50;;;;;;;2.45;2.25;;;38.70;48.80;;;;;;8370407;28;20054;-67
2021/06/26 16:32:51;;;;;;;2.60;2.40;;;41.50;44.60;;;;;;8377198;28;20056;-66
2021/06/26 16:36:52;;;;;;;4.07;2.90;;;42.80;40.80;;;;;;8380585;28;20032;-65
2021/06/26 16:40:53;;;;;;;2.58;2.20;;;42.80;38.20;;;;;;8382164;28;20692;-65
2021/06/26 16:44:54;;;;;;;3.45;2.35;;;42.60;39.90;;;;;;8365748;28;20036;-66
2021/06/26 16:48:55;;;;;;;3.83;2.80;;;42.50;39.10;;;;;;8370429;28;20071;-65
2021/06/26 16:52:55;;;;;;;2.83;2.63;;;40.80;42.00;;;;;;8355666;28;20033;-66
2021/06/26 16:56:56;;;;;;;3.70;2.90;;;41.40;41.00;;;;;;8361299;28;20029;-66
2021/06/26 17:00:58;;;;;;;2.67;2.40;;;42.80;39.60;;;;;;8365290;28;20037;-66
2021/06/26 17:04:58;;;;;;;2.90;2.70;;;42.70;37.90;;;;;;8373149;28;20025;-65
2021/06/26 17:08:59;;;;;;;2.40;2.20;;;42.60;38.40;;;;;;8360207;28;20020;-65
2021/06/26 17:12:59;;;;;;;2.70;2.50;;;42.00;39.00;;;;;;8365307;28;20036;-66
2021/06/26 17:17:00;;;;;;;3.00;2.70;;;42.40;38.50;;;;;;8356716;28;20427;-64
2021/06/26 17:21:02;;;;;;;4.50;2.55;;;40.60;39.80;;;;;;8375453;28;20021;-65
2021/06/26 17:25:05;;;;;;;181.93;170.90;;;38.50;42.30;;;;;;8374459;28;20024;-65
2021/06/26 17:29:05;;;;;;;56.40;33.30;;;35.50;45.70;;;;;;8380506;28;20024;-65
2021/06/26 17:33:06;;;;;;;3.63;3.05;;;32.60;50.40;;;;;;8384104;28;20032;-65
2021/06/26 17:37:07;;;;;;;5.35;4.85;;;30.50;55.00;;;;;;8358185;28;20082;-64
2021/06/26 17:41:09;;;;;;;3.30;3.00;;;29.10;57.50;;;;;;8358076;28;20071;-65
2021/06/26 17:45:10;;;;;;;3.50;3.15;;;28.60;60.50;;;;;;8358543;28;20486;-65
2021/06/26 17:49:11;;;;;;;3.33;3.03;;;28.10;62.50;;;;;;8358078;28;20033;-65
2021/06/26 17:53:12;;;;;;;3.33;2.80;;;27.60;67.60;;;;;;8358371;28;20104;-65
2021/06/26 17:57:13;;;;;;;6.75;2.97;;;27.30;69.50;;;;;;8381844;28;20432;-65
2021/06/26 18:01:16;;;;;;;3.50;2.97;;;27.00;71.50;;;;;;8384669;28;20036;-64
2021/06/26 18:05:17;;;;;;;3.33;3.03;;;26.10;76.20;;;;;;8370572;28;20024;-65
2021/06/26 18:09:17;;;;;;;4.00;3.60;;;25.10;80.60;;;;;;8388864;28;20126;-65
2021/06/26 18:13:18;;;;;;;3.85;3.33;;;25.10;81.20;;;;;;8359782;28;20063;-65
2021/06/26 18:17:19;;;;;;;3.65;3.22;;;24.80;85.10;;;;;;8357299;28;20063;-64
2021/06/26 18:21:19;;;;;;;3.47;3.17;;;24.80;82.60;;;;;;8373892;28;20411;-64
2021/06/26 18:25:20;;;;;;;4.10;2.97;;;25.50;80.20;;;;;;8364129;28;20029;-64
2021/06/26 18:29:21;;;;;;;5.32;3.05;;;25.20;82.00;;;;;;8386554;28;20029;-64
2021/06/26 18:33:21;;;;;;;3.80;3.20;;;24.60;84.50;;;;;;8377958;28;20024;-64
2021/06/26 18:37:22;;;;;;;3.50;3.20;;;23.90;90.10;;;;;;8379896;28;20105;-64
2021/06/26 18:41:24;;;;;;;5.13;3.70;;;23.50;93.10;;;;;;8371726;28;20033;-64
2021/06/26 18:45:24;;;;;;;4.03;3.60;;;23.10;94.20;;;;;;8378298;28;20052;-64
2021/06/26 18:49:25;;;;;;;4.00;3.35;;;22.90;95.50;;;;;;8379145;28;20563;-64
2021/06/26 18:53:26;;;;;;;5.93;4.03;;;22.40;97.30;;;;;;8380277;28;20032;-64
2021/06/26 18:57:27;;;;;;;10.50;6.63;;;21.80;99.90;;;;;;8364801;28;20025;-64
2021/06/26 19:01:30;;;;;;;6.50;4.28;;;21.70;99.90;;;;;;8374480;28;20036;-64
2021/06/26 19:05:30;;;;;;;6.43;3.97;;;21.60;99.90;;;;;;8381579;28;20375;-64
2021/06/26 19:09:31;;;;;;;4.35;3.95;;;21.30;99.90;;;;;;8379554;28;20024;-64
2021/06/26 19:13:33;;;;;;;6.10;4.43;;;21.00;99.90;;;;;;8376479;28;20036;-64
2021/06/26 19:17:33;;;;;;;5.63;5.07;;;20.80;99.90;;;;;;8365639;28;20027;-64
2021/06/26 19:21:34;;;;;;;5.72;4.00;;;20.70;99.90;;;;;;8378826;28;20490;-64
2021/06/26 19:25:36;;;;;;;25.98;17.60;;;20.60;99.90;;;;;;8367404;28;20028;-63
2021/06/26 19:29:36;;;;;;;23.98;17.45;;;20.40;99.90;;;;;;8382323;28;20107;-64
2021/06/26 19:33:37;;;;;;;20.88;16.05;;;20.20;99.90;;;;;;8376507;28;20040;-64
2021/06/26 19:37:38;;;;;;;19.75;15.90;;;20.30;99.90;;;;;;8364580;28;20079;-64
2021/06/26 19:41:39;;;;;;;19.13;14.25;;;20.20;99.90;;;;;;8371605;28;20028;-64
2021/06/26 19:45:40;;;;;;;6.80;4.05;;;20.30;99.90;;;;;;8372942;28;20021;-64
2021/06/26 19:49:41;;;;;;;5.78;5.00;;;20.20;99.90;;;;;;8379067;28;20024;-64
2021/06/26 19:53:43;;;;;;;7.93;6.68;;;19.90;99.90;;;;;;8359729;28;20064;-64
2021/06/26 19:57:44;;;;;;;20.73;15.38;;;19.50;99.90;;;;;;8375793;28;20204;-64
2021/06/26 20:01:45;;;;;;;9.88;8.27;;;19.40;99.90;;;;;;8381783;28;20036;-64
2021/06/26 20:05:46;;;;;;;5.60;5.00;;;19.40;99.90;;;;;;8377615;28;20094;-64
2021/06/26 20:09:46;;;;;;;9.02;7.72;;;19.50;99.90;;;;;;8357974;28;20020;-64
2021/06/26 20:13:47;;;;;;;10.15;8.30;;;19.50;99.90;;;;;;8371680;28;20136;-64
2021/06/26 20:17:48;;;;;;;14.55;7.65;;;19.60;99.90;;;;;;8369068;28;20017;-64
2021/06/26 20:21:49;;;;;;;7.97;4.72;;;19.50;99.90;;;;;;8377174;28;20517;-64
2021/06/26 20:25:50;;;;;;;5.28;4.40;;;19.50;99.90;;;;;;8370220;28;20036;-64
2021/06/26 20:29:51;;;;;;;4.57;4.07;;;19.20;99.90;;;;;;8387867;28;20059;-64
2021/06/26 20:33:52;;;;;;;7.15;4.45;;;19.30;99.90;;;;;;8363015;28;20486;-64